createdAt,value
2022-08-28T00:00:31.883Z,99555.00
2022-08-28T00:02:09.343Z,99561.00
2022-08-28T00:03:46.614Z,99555.00
2022-08-28T00:05:26.320Z,99561.00
2022-08-28T00:06:59.904Z,99562.00
2022-08-28T00:08:42.038Z,99561.00
2022-08-28T00:10:19.422Z,99551.00
2022-08-28T00:11:58.126Z,99562.00
2022-08-28T00:13:32.070Z,99555.00
2022-08-28T00:15:09.698Z,99567.00
2022-08-28T00:16:46.707Z,99571.00
2022-08-28T00:18:21.419Z,99569.00
2022-08-28T00:19:57.390Z,99560.00
2022-08-28T00:21:37.272Z,99567.00
2022-08-28T00:23:13.926Z,99556.00
2022-08-28T00:24:50.619Z,99565.00
2022-08-28T00:26:47.764Z,99566.00
2022-08-28T00:28:24.703Z,99567.00
2022-08-28T00:29:59.957Z,99557.00
2022-08-28T00:31:34.687Z,99562.00
2022-08-28T00:33:17.218Z,99557.00
2022-08-28T00:34:55.874Z,99566.00
2022-08-28T00:36:30.095Z,99564.00
2022-08-28T00:38:04.687Z,99569.00
2022-08-28T00:39:38.641Z,99565.00
2022-08-28T00:41:17.119Z,99561.00
2022-08-28T00:43:01.308Z,99562.00
2022-08-28T00:44:34.167Z,99568.00
2022-08-28T00:46:14.768Z,99571.00
2022-08-28T00:47:51.659Z,99570.00
2022-08-28T00:49:32.896Z,99567.00
2022-08-28T00:51:27.247Z,99580.00
2022-08-28T00:53:05.349Z,99573.00
2022-08-28T00:54:58.559Z,99571.00
2022-08-28T00:56:36.994Z,99573.00
2022-08-28T00:58:16.056Z,99570.00
2022-08-28T00:59:49.605Z,99570.00
2022-08-28T01:01:33.889Z,99576.00
2022-08-28T01:03:16.422Z,99569.00
2022-08-28T01:04:54.877Z,99572.00
2022-08-28T01:06:35.476Z,99573.00
2022-08-28T01:08:14.175Z,99570.00
2022-08-28T01:09:58.526Z,99571.00
2022-08-28T01:11:36.959Z,99568.00
2022-08-28T01:13:15.975Z,99565.00
2022-08-28T01:15:00.716Z,99575.00
2022-08-28T01:16:40.213Z,99572.00
2022-08-28T01:18:20.686Z,99580.00
2022-08-28T01:20:03.856Z,99583.00
2022-08-28T01:21:54.310Z,99588.00
2022-08-28T01:23:57.974Z,99587.00
2022-08-28T01:25:37.895Z,99576.00
2022-08-28T01:27:10.768Z,99579.00
2022-08-28T01:28:49.905Z,99583.00
2022-08-28T01:30:29.799Z,99586.00
2022-08-28T01:32:08.997Z,99584.00
2022-08-28T01:33:44.762Z,99592.00
2022-08-28T01:35:27.123Z,99589.00
2022-08-28T01:37:03.402Z,99598.00
2022-08-28T01:38:43.812Z,99589.00
2022-08-28T01:40:26.656Z,99595.00
2022-08-28T01:42:00.821Z,99586.00
2022-08-28T01:43:39.061Z,99585.00
2022-08-28T01:45:17.742Z,99589.00
2022-08-28T01:46:52.513Z,99595.00
2022-08-28T01:48:29.730Z,99591.00
2022-08-28T01:50:03.364Z,99590.00
2022-08-28T01:51:38.121Z,99592.00
2022-08-28T01:53:17.747Z,99587.00
2022-08-28T01:54:52.637Z,99594.00
2022-08-28T01:56:27.676Z,99585.00
2022-08-28T01:58:05.531Z,99595.00
2022-08-28T01:59:44.128Z,99594.00
2022-08-28T02:01:22.295Z,99603.00
2022-08-28T02:03:01.724Z,99602.00
2022-08-28T02:04:38.299Z,99600.00
2022-08-28T02:06:15.226Z,99604.00
2022-08-28T02:07:52.387Z,99593.00
2022-08-28T02:09:28.956Z,99595.00
2022-08-28T02:11:02.704Z,99595.00
2022-08-28T02:12:41.212Z,99599.00
2022-08-28T02:14:15.115Z,99600.00
2022-08-28T02:15:51.855Z,99595.00
2022-08-28T02:17:25.611Z,99598.00
2022-08-28T02:19:00.619Z,99597.00
2022-08-28T02:20:35.256Z,99596.00
2022-08-28T02:22:15.888Z,99596.00
2022-08-28T02:23:50.892Z,99606.00
2022-08-28T02:25:27.267Z,99607.00
2022-08-28T02:27:05.465Z,99609.00
2022-08-28T02:28:41.173Z,99607.00
2022-08-28T02:30:17.249Z,99602.00
2022-08-28T02:31:50.737Z,99596.00
2022-08-28T02:33:25.098Z,99602.00
2022-08-28T02:34:59.668Z,99606.00
2022-08-28T02:36:36.003Z,99613.00
2022-08-28T02:38:09.228Z,99616.00
2022-08-28T02:39:43.155Z,99615.00
2022-08-28T02:41:19.672Z,99612.00
2022-08-28T02:42:55.899Z,99620.00
2022-08-28T02:44:30.939Z,99612.00
2022-08-28T02:46:05.568Z,99612.00
2022-08-28T02:47:40.607Z,99615.00
2022-08-28T02:49:14.348Z,99620.00
2022-08-28T02:50:47.755Z,99627.00
2022-08-28T02:52:25.219Z,99622.00
2022-08-28T02:53:58.947Z,99617.00
2022-08-28T02:55:34.828Z,99621.00
2022-08-28T02:57:08.091Z,99622.00
2022-08-28T02:58:41.970Z,99623.00
2022-08-28T03:00:35.526Z,99628.00
2022-08-28T03:02:10.859Z,99628.00
2022-08-28T03:03:47.404Z,99625.00
2022-08-28T03:05:29.723Z,99623.00
2022-08-28T03:07:04.344Z,99619.00
2022-08-28T03:08:38.186Z,99618.00
2022-08-28T03:10:14.113Z,99621.00
2022-08-28T03:11:47.866Z,99619.00
2022-08-28T03:13:26.755Z,99619.00
2022-08-28T03:15:02.384Z,99622.00
2022-08-28T03:16:37.214Z,99622.00
2022-08-28T03:18:21.807Z,99617.00
2022-08-28T03:19:57.036Z,99612.00
2022-08-28T03:21:29.632Z,99617.00
2022-08-28T03:23:21.219Z,99609.00
2022-08-28T03:24:58.811Z,99614.00
2022-08-28T03:26:32.679Z,99618.00
2022-08-28T03:28:06.822Z,99608.00
2022-08-28T03:29:40.480Z,99614.00
2022-08-28T03:31:22.829Z,99619.00
2022-08-28T03:33:01.109Z,99613.00
2022-08-28T03:34:34.719Z,99619.00
2022-08-28T03:36:11.458Z,99618.00
2022-08-28T03:37:45.179Z,99619.00
2022-08-28T03:39:22.090Z,99619.00
2022-08-28T03:40:54.683Z,99610.00
2022-08-28T03:42:30.099Z,99617.00
2022-08-28T03:44:06.889Z,99622.00
2022-08-28T03:45:45.796Z,99616.00
2022-08-28T03:47:19.330Z,99624.00
2022-08-28T03:49:01.282Z,99619.00
2022-08-28T03:50:36.500Z,99619.00
2022-08-28T03:52:13.938Z,99613.00
2022-08-28T03:53:48.439Z,99615.00
2022-08-28T03:55:23.018Z,99615.00
2022-08-28T03:56:59.154Z,99624.00
2022-08-28T03:58:35.981Z,99626.00
2022-08-28T04:00:14.292Z,99621.00
2022-08-28T04:01:51.494Z,99618.00
2022-08-28T04:03:25.672Z,99619.00
2022-08-28T04:05:00.576Z,99624.00
2022-08-28T04:06:36.148Z,99619.00
2022-08-28T04:08:10.384Z,99615.00
2022-08-28T04:09:44.074Z,99613.00
2022-08-28T04:11:25.340Z,99614.00
2022-08-28T04:12:58.528Z,99607.00
2022-08-28T04:14:32.074Z,99613.00
2022-08-28T04:16:19.700Z,99610.00
2022-08-28T04:17:55.474Z,99607.00
2022-08-28T04:19:29.683Z,99609.00
2022-08-28T04:21:12.077Z,99604.00
2022-08-28T04:22:46.358Z,99613.00
2022-08-28T04:24:21.376Z,99610.00
2022-08-28T04:25:54.879Z,99606.00
2022-08-28T04:27:30.178Z,99617.00
2022-08-28T04:29:05.010Z,99615.00
2022-08-28T04:30:41.612Z,99610.00
2022-08-28T04:32:15.167Z,99617.00
2022-08-28T04:33:48.711Z,99619.00
2022-08-28T04:35:26.395Z,99620.00
2022-08-28T04:37:03.890Z,99622.00
2022-08-28T04:38:43.644Z,99620.00
2022-08-28T04:40:20.587Z,99621.00
2022-08-28T04:42:00.166Z,99616.00
2022-08-28T04:43:36.626Z,99620.00
2022-08-28T04:45:11.095Z,99613.00
2022-08-28T04:46:48.275Z,99622.00
2022-08-28T04:48:23.146Z,99622.00
2022-08-28T04:49:56.993Z,99625.00
2022-08-28T04:51:37.845Z,99630.00
2022-08-28T04:53:20.356Z,99630.00
2022-08-28T04:54:59.120Z,99630.00
2022-08-28T04:56:39.390Z,99633.00
2022-08-28T04:58:15.742Z,99638.00
2022-08-28T04:59:56.304Z,99641.00
2022-08-28T05:01:38.367Z,99646.00
2022-08-28T05:03:21.334Z,99647.00
2022-08-28T05:04:54.676Z,99642.00
2022-08-28T05:06:32.068Z,99648.00
2022-08-28T05:08:07.543Z,99643.00
2022-08-28T05:09:43.757Z,99638.00
2022-08-28T05:11:34.047Z,99650.00
2022-08-28T05:13:15.337Z,99653.00
2022-08-28T05:14:50.836Z,99659.00
2022-08-28T05:16:31.438Z,99664.00
2022-08-28T05:18:05.032Z,99655.00
2022-08-28T05:19:39.827Z,99658.00
2022-08-28T05:21:28.946Z,99656.00
2022-08-28T05:23:02.331Z,99659.00
2022-08-28T05:24:38.504Z,99662.00
2022-08-28T05:26:18.186Z,99661.00
2022-08-28T05:27:56.027Z,99667.00
2022-08-28T05:29:29.364Z,99669.00
2022-08-28T05:31:13.359Z,99674.00
2022-08-28T05:32:48.663Z,99665.00
2022-08-28T05:34:25.346Z,99676.00
2022-08-28T05:35:58.897Z,99669.00
2022-08-28T05:37:34.450Z,99668.00
2022-08-28T05:39:11.125Z,99667.00
2022-08-28T05:40:52.712Z,99668.00
2022-08-28T05:42:31.041Z,99675.00
2022-08-28T05:44:13.113Z,99678.00
2022-08-28T05:46:00.138Z,99675.00
2022-08-28T05:47:36.388Z,99675.00
2022-08-28T05:49:10.558Z,99676.00
2022-08-28T05:50:47.349Z,99681.00
2022-08-28T05:52:21.942Z,99689.00
2022-08-28T05:53:58.461Z,99690.00
2022-08-28T05:55:32.118Z,99682.00
2022-08-28T05:57:08.256Z,99688.00
2022-08-28T05:58:43.899Z,99697.00
2022-08-28T06:00:19.769Z,99694.00
2022-08-28T06:01:54.918Z,99696.00
2022-08-28T06:03:29.518Z,99702.00
2022-08-28T06:05:04.181Z,99703.00
2022-08-28T06:06:43.600Z,99702.00
2022-08-28T06:08:18.723Z,99700.00
2022-08-28T06:09:52.108Z,99712.00
2022-08-28T06:11:31.843Z,99704.00
2022-08-28T06:13:06.012Z,99706.00
2022-08-28T06:14:43.507Z,99703.00
2022-08-28T06:16:17.453Z,99707.00
2022-08-28T06:17:54.345Z,99712.00
2022-08-28T06:19:30.703Z,99714.00
2022-08-28T06:21:09.555Z,99707.00
2022-08-28T06:22:43.101Z,99714.00
2022-08-28T06:24:19.731Z,99708.00
2022-08-28T06:25:55.392Z,99709.00
2022-08-28T06:27:28.731Z,99702.00
2022-08-28T06:29:06.387Z,99705.00
2022-08-28T06:31:09.172Z,99715.00
2022-08-28T06:32:46.157Z,99719.00
2022-08-28T06:34:19.652Z,99714.00
2022-08-28T06:35:56.403Z,99724.00
2022-08-28T06:37:32.491Z,99717.00
2022-08-28T06:39:10.382Z,99724.00
2022-08-28T06:40:48.351Z,99717.00
2022-08-28T06:42:24.159Z,99718.00
2022-08-28T06:43:57.827Z,99719.00
2022-08-28T06:45:33.684Z,99725.00
2022-08-28T06:47:11.494Z,99726.00
2022-08-28T06:48:47.614Z,99729.00
2022-08-28T06:50:21.036Z,99725.00
2022-08-28T06:51:56.143Z,99730.00
2022-08-28T06:53:33.100Z,99729.00
2022-08-28T06:55:08.852Z,99724.00
2022-08-28T06:56:46.292Z,99725.00
2022-08-28T06:58:20.263Z,99725.00
2022-08-28T06:59:59.567Z,99728.00
2022-08-28T07:01:36.263Z,99722.00
2022-08-28T07:03:14.675Z,99714.00
2022-08-28T07:04:52.449Z,99717.00
2022-08-28T07:06:26.807Z,99724.00
2022-08-28T07:08:01.769Z,99716.00
2022-08-28T07:09:35.536Z,99729.00
2022-08-28T07:11:17.815Z,99732.00
2022-08-28T07:12:53.069Z,99733.00
2022-08-28T07:14:26.913Z,99733.00
2022-08-28T07:16:07.691Z,99729.00
2022-08-28T07:17:41.513Z,99730.00
2022-08-28T07:19:16.969Z,99736.00
2022-08-28T07:20:57.955Z,99737.00
2022-08-28T07:22:31.772Z,99734.00
2022-08-28T07:24:06.359Z,99737.00
2022-08-28T07:25:42.328Z,99742.00
2022-08-28T07:27:19.225Z,99732.00
2022-08-28T07:29:09.641Z,99729.00
2022-08-28T07:30:44.923Z,99738.00
2022-08-28T07:32:25.589Z,99730.00
2022-08-28T07:34:01.161Z,99739.00
2022-08-28T07:35:35.811Z,99741.00
2022-08-28T07:37:15.138Z,99741.00
2022-08-28T07:38:50.236Z,99734.00
2022-08-28T07:40:29.057Z,99741.00
2022-08-28T07:42:02.799Z,99732.00
2022-08-28T07:43:54.304Z,99740.00
2022-08-28T07:45:31.015Z,99737.00
2022-08-28T07:47:10.244Z,99747.00
2022-08-28T07:48:47.958Z,99751.00
2022-08-28T07:50:24.167Z,99751.00
2022-08-28T07:52:04.532Z,99759.00
2022-08-28T07:53:39.630Z,99757.00
2022-08-28T07:55:14.827Z,99759.00
2022-08-28T07:56:50.935Z,99759.00
2022-08-28T07:58:26.455Z,99754.00
2022-08-28T08:00:03.219Z,99754.00
2022-08-28T08:02:01.794Z,99758.00
2022-08-28T08:03:35.427Z,99760.00
2022-08-28T08:05:14.433Z,99755.00
2022-08-28T08:06:55.615Z,99757.00
2022-08-28T08:08:33.823Z,99759.00
2022-08-28T08:10:11.264Z,99765.00
2022-08-28T08:11:45.465Z,99770.00
2022-08-28T08:13:22.078Z,99761.00
2022-08-28T08:14:56.948Z,99773.00
2022-08-28T08:16:31.023Z,99763.00
2022-08-28T08:18:06.396Z,99770.00
2022-08-28T08:19:42.285Z,99770.00
2022-08-28T08:21:23.198Z,99775.00
2022-08-28T08:22:59.859Z,99780.00
2022-08-28T08:24:33.469Z,99775.00
2022-08-28T08:26:14.044Z,99783.00
2022-08-28T08:27:48.290Z,99785.00
2022-08-28T08:29:26.691Z,99788.00
2022-08-28T08:31:10.395Z,99789.00
2022-08-28T08:32:43.796Z,99788.00
2022-08-28T08:34:20.996Z,99787.00
2022-08-28T08:35:57.596Z,99787.00
2022-08-28T08:37:31.145Z,99783.00
2022-08-28T08:39:09.739Z,99783.00
2022-08-28T08:40:43.901Z,99791.00
2022-08-28T08:42:27.912Z,99781.00
2022-08-28T08:44:08.806Z,99783.00
2022-08-28T08:45:49.614Z,99788.00
2022-08-28T08:47:34.015Z,99782.00
2022-08-28T08:49:18.179Z,99784.00
2022-08-28T08:51:00.439Z,99781.00
2022-08-28T08:52:50.470Z,99781.00
2022-08-28T08:54:23.955Z,99784.00
2022-08-28T08:56:06.933Z,99781.00
2022-08-28T08:57:40.802Z,99778.00
2022-08-28T08:59:19.727Z,99780.00
2022-08-28T09:01:05.516Z,99780.00
2022-08-28T09:02:46.239Z,99783.00
2022-08-28T09:04:36.488Z,99786.00
2022-08-28T09:06:25.830Z,99780.00
2022-08-28T09:08:04.506Z,99789.00
2022-08-28T09:09:42.539Z,99788.00
2022-08-28T09:11:31.987Z,99784.00
2022-08-28T09:13:22.732Z,99779.00
2022-08-28T09:15:05.217Z,99786.00
2022-08-28T09:16:46.283Z,99779.00
2022-08-28T09:18:24.844Z,99783.00
2022-08-28T09:20:00.821Z,99788.00
2022-08-28T09:21:43.915Z,99791.00
2022-08-28T09:23:23.056Z,99794.00
2022-08-28T09:24:56.838Z,99796.00
2022-08-28T09:26:30.254Z,99797.00
2022-08-28T09:28:10.139Z,99797.00
2022-08-28T09:30:07.237Z,99799.00
2022-08-28T09:31:44.360Z,99798.00
2022-08-28T09:33:31.547Z,99800.00
2022-08-28T09:35:16.371Z,99797.00
2022-08-28T09:36:52.290Z,99794.00
2022-08-28T09:38:28.133Z,99798.00
2022-08-28T09:40:20.063Z,99798.00
2022-08-28T09:42:21.943Z,99797.00
2022-08-28T09:43:56.911Z,99787.00
2022-08-28T09:45:34.680Z,99800.00
2022-08-28T09:47:09.679Z,99788.00
2022-08-28T09:48:52.270Z,99800.00
2022-08-28T09:50:37.518Z,99803.00
2022-08-28T09:52:25.389Z,99798.00
2022-08-28T09:54:07.975Z,99804.00
2022-08-28T09:56:00.211Z,99793.00
2022-08-28T09:57:33.855Z,99796.00
2022-08-28T09:59:10.514Z,99792.00
2022-08-28T10:01:07.461Z,99791.00
2022-08-28T10:02:54.950Z,99790.00
2022-08-28T10:04:46.424Z,99789.00
2022-08-28T10:06:28.506Z,99798.00
2022-08-28T10:08:18.329Z,99798.00
2022-08-28T10:10:21.334Z,99791.00
2022-08-28T10:12:07.659Z,99783.00
2022-08-28T10:13:56.810Z,99782.00
2022-08-28T10:15:50.375Z,99782.00
2022-08-28T10:17:38.172Z,99776.00
2022-08-28T10:19:31.078Z,99779.00
2022-08-28T10:21:18.875Z,99788.00
2022-08-28T10:23:07.830Z,99778.00
2022-08-28T10:25:11.740Z,99775.00
2022-08-28T10:26:56.531Z,99771.00
2022-08-28T10:28:48.012Z,99781.00
2022-08-28T10:30:28.080Z,99779.00
2022-08-28T10:32:29.518Z,99764.00
2022-08-28T10:34:29.055Z,99793.00
2022-08-28T10:36:34.179Z,99789.00
2022-08-28T10:38:16.173Z,99782.00
2022-08-28T10:39:59.971Z,99786.00
2022-08-28T10:41:42.965Z,99793.00
2022-08-28T10:43:27.999Z,99794.00
2022-08-28T10:45:08.775Z,99788.00
2022-08-28T10:46:49.544Z,99794.00
2022-08-28T10:48:31.863Z,99785.00
2022-08-28T10:50:16.320Z,99792.00
2022-08-28T10:51:55.415Z,99790.00
2022-08-28T10:53:40.651Z,99795.00
2022-08-28T10:55:23.551Z,99793.00
2022-08-28T10:57:10.977Z,99793.00
2022-08-28T10:58:51.470Z,99793.00
2022-08-28T11:00:30.517Z,99800.00
2022-08-28T11:02:13.486Z,99787.00
2022-08-28T11:03:52.275Z,99791.00
2022-08-28T11:05:31.243Z,99793.00
2022-08-28T11:07:24.456Z,99796.00
2022-08-28T11:09:24.646Z,99793.00
2022-08-28T11:11:00.346Z,99795.00
2022-08-28T11:12:43.998Z,99798.00
2022-08-28T11:14:35.493Z,99787.00
2022-08-28T11:16:25.942Z,99788.00
2022-08-28T11:18:40.823Z,99788.00
2022-08-28T11:20:22.759Z,99788.00
2022-08-28T11:22:03.231Z,99789.00
2022-08-28T11:23:43.975Z,99796.00
2022-08-28T11:25:26.347Z,99795.00
2022-08-28T11:27:17.559Z,99801.00
2022-08-28T11:28:51.874Z,99802.00
2022-08-28T11:30:33.941Z,99801.00
2022-08-28T11:32:38.450Z,99800.00
2022-08-28T11:34:59.250Z,99809.00
2022-08-28T11:37:03.488Z,99788.00
2022-08-28T11:39:20.707Z,99799.00
2022-08-28T11:41:15.724Z,99791.00
2022-08-28T11:42:51.277Z,99800.00
2022-08-28T11:44:45.931Z,99802.00
2022-08-28T11:46:37.666Z,99795.00
2022-08-28T11:48:52.087Z,99793.00
2022-08-28T11:50:31.642Z,99788.00
2022-08-28T11:52:37.916Z,99791.00
2022-08-28T11:54:32.543Z,99790.00
2022-08-28T11:56:52.772Z,99788.00
2022-08-28T11:58:42.583Z,99797.00
2022-08-28T12:00:30.403Z,99805.00
2022-08-28T12:02:47.527Z,99807.00
2022-08-28T12:04:25.035Z,99806.00
2022-08-28T12:06:01.281Z,99800.00
2022-08-28T12:07:39.853Z,99806.00
2022-08-28T12:09:48.275Z,99791.00
2022-08-28T12:12:05.214Z,99799.00
2022-08-28T12:13:52.433Z,99799.00
2022-08-28T12:15:44.801Z,99795.00
2022-08-28T12:17:31.174Z,99791.00
2022-08-28T12:19:17.019Z,99789.00
2022-08-28T12:21:07.857Z,99792.00
2022-08-28T12:22:51.079Z,99791.00
2022-08-28T12:24:28.815Z,99790.00
2022-08-28T12:26:25.016Z,99793.00
2022-08-28T12:28:04.760Z,99793.00
2022-08-28T12:29:52.866Z,99789.00
2022-08-28T12:32:14.797Z,99789.00
2022-08-28T12:34:00.368Z,99792.00
2022-08-28T12:35:34.210Z,99796.00
2022-08-28T12:37:49.469Z,99789.00
2022-08-28T12:39:29.796Z,99778.00
2022-08-28T12:41:07.951Z,99792.00
2022-08-28T12:42:55.364Z,99783.00
2022-08-28T12:44:36.016Z,99790.00
2022-08-28T12:46:18.968Z,99785.00
2022-08-28T12:47:59.991Z,99795.00
2022-08-28T12:49:39.556Z,99790.00
2022-08-28T12:51:22.906Z,99792.00
2022-08-28T12:53:04.783Z,99794.00
2022-08-28T12:54:39.643Z,99793.00
2022-08-28T12:56:20.180Z,99788.00
2022-08-28T12:57:56.203Z,99785.00
2022-08-28T12:59:39.836Z,99798.00
2022-08-28T13:01:25.472Z,99794.00
2022-08-28T13:03:03.645Z,99796.00
2022-08-28T13:04:55.527Z,99790.00
2022-08-28T13:06:35.331Z,99794.00
2022-08-28T13:08:13.645Z,99789.00
2022-08-28T13:09:52.066Z,99789.00
2022-08-28T13:11:30.853Z,99792.00
2022-08-28T13:13:22.103Z,99787.00
2022-08-28T13:14:58.235Z,99787.00
2022-08-28T13:16:46.452Z,99780.00
2022-08-28T13:18:52.709Z,99783.00
2022-08-28T13:20:39.513Z,99779.00
2022-08-28T13:22:35.937Z,99782.00
2022-08-28T13:24:37.243Z,99784.00
2022-08-28T13:26:11.777Z,99773.00
2022-08-28T13:27:57.285Z,99769.00
2022-08-28T13:29:35.305Z,99774.00
2022-08-28T13:31:29.883Z,99773.00
2022-08-28T13:33:20.750Z,99774.00
2022-08-28T13:35:37.078Z,99772.00
2022-08-28T13:37:43.078Z,99769.00
2022-08-28T13:39:22.498Z,99774.00
2022-08-28T13:41:03.537Z,99773.00
2022-08-28T13:42:38.719Z,99771.00
2022-08-28T13:44:31.837Z,99772.00
2022-08-28T13:46:09.518Z,99777.00
2022-08-28T13:47:43.935Z,99765.00
2022-08-28T13:49:24.995Z,99774.00
2022-08-28T13:51:05.186Z,99771.00
2022-08-28T13:52:45.240Z,99763.00
2022-08-28T13:54:20.419Z,99768.00
2022-08-28T13:55:56.015Z,99771.00
2022-08-28T13:57:29.602Z,99762.00
2022-08-28T13:59:05.406Z,99753.00
2022-08-28T14:00:52.483Z,99760.00
2022-08-28T14:02:44.171Z,99759.00
2022-08-28T14:04:26.568Z,99756.00
2022-08-28T14:06:03.714Z,99762.00
2022-08-28T14:07:39.430Z,99753.00
2022-08-28T14:09:17.640Z,99752.00
2022-08-28T14:10:52.903Z,99743.00
2022-08-28T14:12:33.373Z,99748.00
2022-08-28T14:14:07.888Z,99748.00
2022-08-28T14:15:47.888Z,99746.00
2022-08-28T14:17:22.299Z,99743.00
2022-08-28T14:18:59.380Z,99748.00
2022-08-28T14:20:33.070Z,99750.00
2022-08-28T14:22:06.560Z,99757.00
2022-08-28T14:23:42.467Z,99735.00
2022-08-28T14:25:23.398Z,99746.00
2022-08-28T14:26:57.981Z,99744.00
2022-08-28T14:28:31.384Z,99741.00
2022-08-28T14:30:09.689Z,99737.00
2022-08-28T14:31:48.636Z,99739.00
2022-08-28T14:33:23.642Z,99741.00
2022-08-28T14:34:59.488Z,99742.00
2022-08-28T14:36:36.815Z,99743.00
2022-08-28T14:38:13.855Z,99736.00
2022-08-28T14:39:47.866Z,99735.00
2022-08-28T14:41:29.524Z,99741.00
2022-08-28T14:43:06.016Z,99745.00
2022-08-28T14:44:44.543Z,99748.00
2022-08-28T14:46:19.592Z,99747.00
2022-08-28T14:47:57.328Z,99745.00
2022-08-28T14:49:31.011Z,99741.00
2022-08-28T14:51:06.309Z,99743.00
2022-08-28T14:52:46.498Z,99748.00
2022-08-28T14:54:26.643Z,99750.00
2022-08-28T14:56:08.795Z,99742.00
2022-08-28T14:57:42.870Z,99742.00
2022-08-28T14:59:29.204Z,99739.00
2022-08-28T15:01:03.542Z,99742.00
2022-08-28T15:02:39.652Z,99746.00
2022-08-28T15:04:22.466Z,99747.00
2022-08-28T15:06:04.517Z,99743.00
2022-08-28T15:07:46.005Z,99738.00
2022-08-28T15:09:21.694Z,99743.00
2022-08-28T15:11:00.726Z,99746.00
2022-08-28T15:12:34.218Z,99736.00
2022-08-28T15:14:11.234Z,99739.00
2022-08-28T15:15:49.043Z,99740.00
2022-08-28T15:17:24.280Z,99744.00
2022-08-28T15:19:13.994Z,99746.00
2022-08-28T15:20:50.858Z,99739.00
2022-08-28T15:22:27.333Z,99748.00
2022-08-28T15:24:03.861Z,99748.00
2022-08-28T15:25:38.357Z,99741.00
2022-08-28T15:27:13.093Z,99740.00
2022-08-28T15:28:46.978Z,99746.00
2022-08-28T15:30:22.397Z,99746.00
2022-08-28T15:31:56.581Z,99740.00
2022-08-28T15:33:30.306Z,99734.00
2022-08-28T15:35:04.287Z,99732.00
2022-08-28T15:36:41.218Z,99738.00
2022-08-28T15:38:14.755Z,99734.00
2022-08-28T15:40:17.499Z,99739.00
2022-08-28T15:41:52.644Z,99737.00
2022-08-28T15:43:29.349Z,99739.00
2022-08-28T15:45:08.538Z,99735.00
2022-08-28T15:46:42.695Z,99732.00
2022-08-28T15:48:18.261Z,99744.00
2022-08-28T15:49:57.161Z,99742.00
2022-08-28T15:51:31.423Z,99739.00
2022-08-28T15:53:08.324Z,99741.00
2022-08-28T15:54:47.546Z,99741.00
2022-08-28T15:56:21.774Z,99734.00
2022-08-28T15:57:57.707Z,99742.00
2022-08-28T15:59:44.158Z,99743.00
2022-08-28T16:01:24.166Z,99735.00
2022-08-28T16:03:00.953Z,99732.00
2022-08-28T16:04:34.597Z,99745.00
2022-08-28T16:06:17.752Z,99736.00
2022-08-28T16:07:52.663Z,99739.00
2022-08-28T16:09:27.475Z,99735.00
2022-08-28T16:11:01.183Z,99737.00
2022-08-28T16:12:38.888Z,99735.00
2022-08-28T16:14:15.870Z,99739.00
2022-08-28T16:15:55.548Z,99736.00
2022-08-28T16:17:30.832Z,99746.00
2022-08-28T16:19:05.416Z,99737.00
2022-08-28T16:20:41.235Z,99733.00
2022-08-28T16:22:16.440Z,99731.00
2022-08-28T16:23:53.055Z,99744.00
2022-08-28T16:25:27.868Z,99739.00
2022-08-28T16:27:04.352Z,99737.00
2022-08-28T16:28:41.731Z,99741.00
2022-08-28T16:30:18.109Z,99726.00
2022-08-28T16:31:54.277Z,99735.00
2022-08-28T16:33:27.875Z,99730.00
2022-08-28T16:35:04.901Z,99732.00
2022-08-28T16:36:40.779Z,99738.00
2022-08-28T16:38:15.337Z,99737.00
2022-08-28T16:39:48.843Z,99734.00
2022-08-28T16:41:27.623Z,99727.00
2022-08-28T16:43:03.977Z,99734.00
2022-08-28T16:44:37.630Z,99734.00
2022-08-28T16:46:13.345Z,99728.00
2022-08-28T16:47:46.766Z,99734.00
2022-08-28T16:49:20.232Z,99729.00
2022-08-28T16:50:54.132Z,99732.00
2022-08-28T16:52:28.647Z,99729.00
2022-08-28T16:54:02.364Z,99723.00
2022-08-28T16:55:40.537Z,99721.00
2022-08-28T16:57:19.556Z,99721.00
2022-08-28T16:58:54.789Z,99715.00
2022-08-28T17:00:28.428Z,99717.00
2022-08-28T17:02:03.060Z,99727.00
2022-08-28T17:03:42.963Z,99717.00
2022-08-28T17:05:21.591Z,99718.00
2022-08-28T17:06:57.612Z,99716.00
2022-08-28T17:08:35.427Z,99716.00
2022-08-28T17:10:18.173Z,99716.00
2022-08-28T17:11:53.732Z,99720.00
2022-08-28T17:13:30.949Z,99729.00
2022-08-28T17:15:05.247Z,99717.00
2022-08-28T17:16:42.140Z,99722.00
2022-08-28T17:18:17.741Z,99719.00
2022-08-28T17:19:52.287Z,99722.00
2022-08-28T17:21:46.189Z,99718.00
2022-08-28T17:23:20.106Z,99724.00
2022-08-28T17:24:53.643Z,99724.00
2022-08-28T17:26:27.043Z,99726.00
2022-08-28T17:28:04.073Z,99729.00
2022-08-28T17:29:57.719Z,99728.00
2022-08-28T17:31:31.420Z,99724.00
2022-08-28T17:33:07.014Z,99726.00
2022-08-28T17:34:40.994Z,99730.00
2022-08-28T17:36:32.539Z,99728.00
2022-08-28T17:38:09.615Z,99730.00
2022-08-28T17:39:47.290Z,99737.00
2022-08-28T17:41:22.566Z,99736.00
2022-08-28T17:42:58.916Z,99732.00
2022-08-28T17:44:35.179Z,99730.00
2022-08-28T17:46:14.133Z,99736.00
2022-08-28T17:47:50.863Z,99730.00
2022-08-28T17:49:26.123Z,99734.00
2022-08-28T17:51:04.011Z,99734.00
2022-08-28T17:52:38.507Z,99721.00
2022-08-28T17:54:13.109Z,99735.00
2022-08-28T17:55:49.275Z,99738.00
2022-08-28T17:57:30.416Z,99746.00
2022-08-28T17:59:04.299Z,99744.00
2022-08-28T18:00:38.380Z,99744.00
2022-08-28T18:02:16.637Z,99746.00
2022-08-28T18:03:53.284Z,99746.00
2022-08-28T18:05:30.478Z,99748.00
2022-08-28T18:07:07.024Z,99750.00
2022-08-28T18:08:47.023Z,99757.00
2022-08-28T18:10:23.380Z,99757.00
2022-08-28T18:12:02.491Z,99762.00
2022-08-28T18:13:38.400Z,99761.00
2022-08-28T18:15:15.794Z,99759.00
2022-08-28T18:16:49.270Z,99761.00
2022-08-28T18:18:26.902Z,99760.00
2022-08-28T18:20:11.817Z,99753.00
2022-08-28T18:21:49.035Z,99753.00
2022-08-28T18:23:23.027Z,99757.00
2022-08-28T18:24:56.619Z,99762.00
2022-08-28T18:26:30.812Z,99767.00
2022-08-28T18:28:09.950Z,99767.00
2022-08-28T18:29:49.370Z,99769.00
2022-08-28T18:31:24.564Z,99766.00
2022-08-28T18:33:04.947Z,99777.00
2022-08-28T18:34:42.940Z,99776.00
2022-08-28T18:36:20.430Z,99775.00
2022-08-28T18:37:54.363Z,99783.00
2022-08-28T18:39:35.850Z,99785.00
2022-08-28T18:41:12.226Z,99785.00
2022-08-28T18:42:46.141Z,99782.00
2022-08-28T18:44:24.299Z,99783.00
2022-08-28T18:46:01.645Z,99784.00
2022-08-28T18:47:37.915Z,99778.00
2022-08-28T18:49:12.459Z,99781.00
2022-08-28T18:50:48.259Z,99784.00
2022-08-28T18:52:21.646Z,99787.00
2022-08-28T18:53:58.267Z,99788.00
2022-08-28T18:55:36.827Z,99789.00
2022-08-28T18:57:11.642Z,99794.00
2022-08-28T18:58:45.560Z,99795.00
2022-08-28T19:00:21.301Z,99790.00
2022-08-28T19:01:57.881Z,99804.00
2022-08-28T19:03:33.732Z,99801.00
2022-08-28T19:05:09.105Z,99803.00
2022-08-28T19:06:44.356Z,99803.00
2022-08-28T19:08:19.994Z,99803.00
2022-08-28T19:10:00.685Z,99795.00
2022-08-28T19:11:35.866Z,99807.00
2022-08-28T19:13:10.803Z,99809.00
2022-08-28T19:14:44.264Z,99823.00
2022-08-28T19:16:20.423Z,99830.00
2022-08-28T19:17:54.557Z,99826.00
2022-08-28T19:19:28.791Z,99833.00
2022-08-28T19:21:08.255Z,99835.00
2022-08-28T19:22:43.452Z,99841.00
2022-08-28T19:24:17.903Z,99835.00
2022-08-28T19:25:51.394Z,99830.00
2022-08-28T19:27:25.016Z,99840.00
2022-08-28T19:28:59.235Z,99837.00
2022-08-28T19:30:35.463Z,99844.00